Time;durP1;ratioP1;P1;durP2;ratioP2;P2;SDS_P1;SDS_P2;PMS_P1;PMS_P2;Temp;Humidity;BMP_temperature;BMP_pressure;BME280_temperature;BME280_humidity;BME280_pressure;Samples;Min_cycle;Max_cycle;Signal;HPM_P1;HPM_P2
2021/07/14 00:01:04;;;;;;;1.40;0.80;;;;;;;;;;5070009;28;20040;-57
2021/07/14 00:03:31;;;;;;;6.38;0.88;;;;;;;;;;5092584;28;20043;-58
2021/07/14 00:06:01;;;;;;;8.02;0.80;;;;;;;;;;5091193;28;20115;-57
2021/07/14 00:08:28;;;;;;;3.75;0.80;;;;;;;;;;5089573;28;20059;-58
2021/07/14 00:10:54;;;;;;;3.10;1.25;;;;;;;;;;5085077;28;20090;-57
2021/07/14 00:13:34;;;;;;;4.10;0.77;;;;;;;;;;5088849;28;20071;-58
2021/07/14 00:24:17;;;;;;;5.10;0.70;;;;;;;;;;5089703;28;20055;-57
2021/07/14 00:26:44;;;;;;;3.20;0.60;;;;;;;;;;5090100;28;20040;-57
2021/07/14 00:29:12;;;;;;;3.95;0.82;;;;;;;;;;5087507;28;20082;-58
2021/07/14 00:31:42;;;;;;;6.47;0.90;;;;;;;;;;5082852;28;20570;-59
2021/07/14 00:34:09;;;;;;;3.70;0.80;;;;;;;;;;5087652;28;20559;-58
2021/07/14 00:36:35;;;;;;;3.90;0.93;;;;;;;;;;5083004;28;20080;-58
2021/07/14 00:39:03;;;;;;;2.70;0.70;;;;;;;;;;5088667;28;20068;-58
2021/07/14 00:41:30;;;;;;;2.58;0.68;;;;;;;;;;5092601;28;20071;-58
2021/07/14 00:43:56;;;;;;;2.90;0.80;;;;;;;;;;5090734;28;20048;-57
2021/07/14 00:46:27;;;;;;;2.30;1.10;;;;;;;;;;5084161;28;20051;-56
2021/07/14 00:48:58;;;;;;;2.90;0.75;;;;;;;;;;5061157;28;20051;-56
2021/07/14 00:51:25;;;;;;;0.80;0.70;;;;;;;;;;5080655;28;20393;-57
2021/07/14 00:53:52;;;;;;;4.00;0.90;;;;;;;;;;5089044;28;20544;-57
2021/07/14 00:56:19;;;;;;;2.58;0.70;;;;;;;;;;5089043;28;20085;-59
2021/07/14 00:58:46;;;;;;;1.52;0.70;;;;;;;;;;5084741;28;20068;-59
2021/07/14 01:01:13;;;;;;;2.80;1.05;;;;;;;;;;5089746;28;20097;-58
2021/07/14 01:03:44;;;;;;;1.10;0.80;;;;;;;;;;5087543;28;20046;-58
2021/07/14 01:06:20;;;;;;;1.15;0.70;;;;;;;;;;5087530;28;20160;-56
2021/07/14 01:08:50;;;;;;;2.47;0.80;;;;;;;;;;5086725;28;20082;-59
2021/07/14 01:11:19;;;;;;;3.17;0.80;;;;;;;;;;5089596;28;20119;-57
2021/07/14 01:13:48;;;;;;;2.25;0.80;;;;;;;;;;5088580;28;20048;-57
2021/07/14 01:16:19;;;;;;;4.18;1.00;;;;;;;;;;5071093;28;20063;-60
2021/07/14 01:19:08;;;;;;;2.92;0.80;;;;;;;;;;5085184;28;20053;-57
2021/07/14 01:21:38;;;;;;;3.05;0.80;;;;;;;;;;5088821;28;20071;-56
2021/07/14 01:24:08;;;;;;;2.25;0.82;;;;;;;;;;5088745;28;20448;-57
2021/07/14 01:26:53;;;;;;;2.22;0.70;;;;;;;;;;5085219;28;20049;-57
2021/07/14 01:29:22;;;;;;;2.05;0.80;;;;;;;;;;5083554;28;20081;-57
2021/07/14 01:31:50;;;;;;;12.35;1.00;;;;;;;;;;5084247;28;20067;-57
2021/07/14 01:34:19;;;;;;;2.55;0.70;;;;;;;;;;5087692;28;20041;-57
2021/07/14 01:36:48;;;;;;;6.38;0.80;;;;;;;;;;5088103;28;20044;-56
2021/07/14 01:39:16;;;;;;;2.42;0.80;;;;;;;;;;5088231;28;20660;-56
2021/07/14 01:41:45;;;;;;;8.43;0.90;;;;;;;;;;5095377;28;20067;-56
2021/07/14 01:44:13;;;;;;;6.15;0.85;;;;;;;;;;5074855;28;20079;-59
2021/07/14 01:46:41;;;;;;;4.07;1.38;;;;;;;;;;5086588;28;20044;-57
2021/07/14 01:49:12;;;;;;;4.00;1.10;;;;;;;;;;5088058;28;20476;-59
2021/07/14 01:51:58;;;;;;;3.85;0.82;;;;;;;;;;5089626;28;20048;-57
2021/07/14 01:54:26;;;;;;;2.00;0.80;;;;;;;;;;5087648;28;20048;-57
2021/07/14 01:56:55;;;;;;;1.70;0.80;;;;;;;;;;5088421;28;21077;-57
2021/07/14 01:59:23;;;;;;;2.75;0.80;;;;;;;;;;5089818;28;20040;-57
2021/07/14 02:01:51;;;;;;;1.70;0.90;;;;;;;;;;5087411;28;20101;-57
2021/07/14 02:04:31;;;;;;;5.20;0.90;;;;;;;;;;5093093;28;20036;-57
2021/07/14 02:07:09;;;;;;;3.47;0.80;;;;;;;;;;5091541;28;20035;-57
2021/07/14 02:09:37;;;;;;;5.72;1.23;;;;;;;;;;5091702;28;20075;-57
2021/07/14 02:12:06;;;;;;;2.63;0.80;;;;;;;;;;5092159;28;20040;-57
2021/07/14 02:14:39;;;;;;;5.55;1.30;;;;;;;;;;5092129;28;20115;-57
2021/07/14 02:17:09;;;;;;;7.22;0.80;;;;;;;;;;5092771;28;20090;-57
2021/07/14 02:19:36;;;;;;;3.70;0.90;;;;;;;;;;5092386;28;20055;-58
2021/07/14 02:22:03;;;;;;;1.00;0.70;;;;;;;;;;5091674;28;20063;-56
2021/07/14 02:24:32;;;;;;;2.88;0.80;;;;;;;;;;5088496;28;20109;-56
2021/07/14 02:27:04;;;;;;;4.25;0.93;;;;;;;;;;5090735;28;20620;-57
2021/07/14 02:29:38;;;;;;;4.43;0.80;;;;;;;;;;5086446;28;20043;-57
2021/07/14 02:32:07;;;;;;;2.70;0.85;;;;;;;;;;5094677;28;20290;-57
2021/07/14 02:34:33;;;;;;;2.13;1.00;;;;;;;;;;5091504;28;20051;-57
2021/07/14 02:37:02;;;;;;;1.92;0.80;;;;;;;;;;5092363;28;20127;-57
2021/07/14 02:39:29;;;;;;;4.47;1.20;;;;;;;;;;5093288;28;20526;-57
2021/07/14 02:42:10;;;;;;;2.45;0.98;;;;;;;;;;5101497;28;20373;-56
2021/07/14 02:44:40;;;;;;;9.50;1.15;;;;;;;;;;5093661;28;20048;-57
2021/07/14 02:47:08;;;;;;;5.75;1.35;;;;;;;;;;5090107;28;20067;-58
2021/07/14 02:49:37;;;;;;;6.53;1.35;;;;;;;;;;5091111;28;20500;-57
2021/07/14 02:52:03;;;;;;;3.63;0.93;;;;;;;;;;5083739;28;20048;-57
2021/07/14 02:54:32;;;;;;;2.92;0.93;;;;;;;;;;5091439;28;20086;-57
2021/07/14 02:57:02;;;;;;;2.15;0.70;;;;;;;;;;5095539;28;20044;-56
2021/07/14 02:59:30;;;;;;;3.38;0.80;;;;;;;;;;5092731;28;20044;-57
2021/07/14 03:01:58;;;;;;;3.03;0.90;;;;;;;;;;5090381;28;20036;-57
2021/07/14 03:04:45;;;;;;;3.28;1.00;;;;;;;;;;5092859;28;20040;-57
2021/07/14 03:07:12;;;;;;;3.53;1.20;;;;;;;;;;5089392;28;20040;-57
2021/07/14 03:09:42;;;;;;;2.47;0.80;;;;;;;;;;5090529;28;20565;-56
2021/07/14 03:12:13;;;;;;;3.78;1.70;;;;;;;;;;5090658;28;20044;-57
2021/07/14 03:15:06;;;;;;;2.92;1.65;;;;;;;;;;5090192;28;20040;-55
2021/07/14 03:17:33;;;;;;;1.90;0.80;;;;;;;;;;5071224;28;20047;-58
2021/07/14 03:20:03;;;;;;;2.13;0.80;;;;;;;;;;5083794;28;20082;-57
2021/07/14 03:22:30;;;;;;;2.55;1.13;;;;;;;;;;5085761;28;20032;-59
2021/07/14 03:24:57;;;;;;;4.63;1.27;;;;;;;;;;5074606;28;20131;-57
2021/07/14 03:27:24;;;;;;;2.17;0.90;;;;;;;;;;5089386;28;20503;-57
2021/07/14 03:29:54;;;;;;;2.03;0.90;;;;;;;;;;5086752;28;20045;-57
2021/07/14 03:32:21;;;;;;;3.28;1.00;;;;;;;;;;5092183;28;20074;-57
2021/07/14 03:34:48;;;;;;;2.28;1.20;;;;;;;;;;5091999;28;20044;-56
2021/07/14 03:37:15;;;;;;;3.05;0.90;;;;;;;;;;5080698;28;20083;-57
2021/07/14 03:39:42;;;;;;;7.07;1.60;;;;;;;;;;5090651;28;20680;-56
2021/07/14 03:42:16;;;;;;;4.13;1.50;;;;;;;;;;5091407;28;20043;-57
2021/07/14 03:44:45;;;;;;;2.63;1.10;;;;;;;;;;5091313;28;20036;-56
2021/07/14 03:47:13;;;;;;;2.80;0.80;;;;;;;;;;5090411;28;20044;-58
2021/07/14 03:49:40;;;;;;;4.35;1.30;;;;;;;;;;5090509;28;20094;-57
2021/07/14 03:52:08;;;;;;;4.80;1.05;;;;;;;;;;5090963;28;20135;-57
2021/07/14 03:54:36;;;;;;;3.05;1.15;;;;;;;;;;5089185;28;20044;-57
2021/07/14 03:57:03;;;;;;;2.65;0.88;;;;;;;;;;5082136;28;20460;-58
2021/07/14 03:59:30;;;;;;;4.25;0.80;;;;;;;;;;5090424;28;20059;-56
2021/07/14 04:01:58;;;;;;;5.90;1.45;;;;;;;;;;5090181;28;20496;-57
2021/07/14 04:04:25;;;;;;;2.25;0.90;;;;;;;;;;5092061;28;20115;-56
2021/07/14 04:06:55;;;;;;;5.07;0.90;;;;;;;;;;5089073;28;20533;-57
2021/07/14 04:09:23;;;;;;;3.50;1.00;;;;;;;;;;5066854;28;20068;-57
2021/07/14 04:11:56;;;;;;;3.47;1.20;;;;;;;;;;5054488;28;20040;-57
2021/07/14 04:14:23;;;;;;;6.20;0.88;;;;;;;;;;5089075;28;20028;-57
2021/07/14 04:16:51;;;;;;;3.58;1.17;;;;;;;;;;5091017;28;20052;-57
2021/07/14 04:19:18;;;;;;;3.63;1.00;;;;;;;;;;5089580;28;20522;-55
2021/07/14 04:21:45;;;;;;;6.40;1.10;;;;;;;;;;5087438;28;20056;-57
2021/07/14 04:24:12;;;;;;;7.60;1.30;;;;;;;;;;5088692;28;20564;-57
2021/07/14 04:26:39;;;;;;;3.38;1.00;;;;;;;;;;5089309;28;20117;-57
2021/07/14 04:29:06;;;;;;;4.78;1.10;;;;;;;;;;5079423;28;20032;-56
2021/07/14 04:31:33;;;;;;;4.50;1.00;;;;;;;;;;5083261;28;20102;-57
2021/07/14 04:34:01;;;;;;;4.55;1.60;;;;;;;;;;5090798;28;20139;-56
2021/07/14 04:36:28;;;;;;;5.22;0.93;;;;;;;;;;5089498;28;20074;-57
2021/07/14 04:38:56;;;;;;;7.65;0.90;;;;;;;;;;5085040;28;20138;-57
2021/07/14 04:41:24;;;;;;;6.75;0.90;;;;;;;;;;5091791;28;20544;-57
2021/07/14 04:43:53;;;;;;;7.38;0.90;;;;;;;;;;5090608;28;20464;-57
2021/07/14 04:46:19;;;;;;;3.47;1.73;;;;;;;;;;5072030;28;20652;-56
2021/07/14 04:48:46;;;;;;;6.35;0.90;;;;;;;;;;5090714;28;20047;-56
2021/07/14 04:51:13;;;;;;;5.25;1.05;;;;;;;;;;5089645;28;20036;-56
2021/07/14 04:53:39;;;;;;;9.35;1.00;;;;;;;;;;5074456;28;20036;-57
2021/07/14 04:56:07;;;;;;;4.45;0.80;;;;;;;;;;5085108;28;20064;-57
2021/07/14 04:58:34;;;;;;;4.38;1.23;;;;;;;;;;5072852;28;20098;-57
2021/07/14 05:01:00;;;;;;;3.35;1.25;;;;;;;;;;5090768;28;20545;-56
2021/07/14 05:03:27;;;;;;;7.35;0.98;;;;;;;;;;5088509;28;20090;-57
2021/07/14 05:05:54;;;;;;;8.57;0.80;;;;;;;;;;5090317;28;20074;-56
2021/07/14 05:08:21;;;;;;;14.05;1.88;;;;;;;;;;5088494;28;20040;-57
2021/07/14 05:10:50;;;;;;;5.82;0.85;;;;;;;;;;5080373;28;20465;-56
2021/07/14 05:13:17;;;;;;;6.85;0.98;;;;;;;;;;5089708;28;20485;-57
2021/07/14 05:15:44;;;;;;;5.60;0.80;;;;;;;;;;5087894;28;20415;-56
2021/07/14 05:18:12;;;;;;;2.53;0.88;;;;;;;;;;5090643;28;20558;-58
2021/07/14 05:20:39;;;;;;;3.15;0.80;;;;;;;;;;5088439;28;20127;-57
2021/07/14 05:23:06;;;;;;;3.45;1.05;;;;;;;;;;5089501;28;20369;-58
2021/07/14 05:25:34;;;;;;;4.90;1.05;;;;;;;;;;5086137;28;20098;-57
2021/07/14 05:28:01;;;;;;;2.28;0.90;;;;;;;;;;5087784;28;20040;-61
2021/07/14 05:30:27;;;;;;;3.00;0.80;;;;;;;;;;5085421;28;20085;-61
2021/07/14 05:32:54;;;;;;;8.70;1.35;;;;;;;;;;5087392;28;20056;-61
2021/07/14 05:35:21;;;;;;;2.95;0.90;;;;;;;;;;5086980;28;20114;-61
2021/07/14 05:37:47;;;;;;;5.82;1.20;;;;;;;;;;5090565;28;20044;-61
2021/07/14 05:40:14;;;;;;;7.15;0.80;;;;;;;;;;5088869;28;20139;-61
2021/07/14 05:42:41;;;;;;;8.75;0.90;;;;;;;;;;5088704;28;20040;-61
2021/07/14 05:45:08;;;;;;;5.32;1.27;;;;;;;;;;5089715;28;20081;-61
2021/07/14 05:47:35;;;;;;;5.43;1.00;;;;;;;;;;5087842;28;20068;-61
2021/07/14 05:50:04;;;;;;;7.50;1.25;;;;;;;;;;5076621;28;20102;-61
2021/07/14 05:52:31;;;;;;;7.80;1.17;;;;;;;;;;5084128;28;20032;-61
2021/07/14 05:54:58;;;;;;;5.93;1.23;;;;;;;;;;5077528;28;20123;-62
2021/07/14 05:57:25;;;;;;;6.03;1.00;;;;;;;;;;5089355;28;20048;-61
2021/07/14 05:59:51;;;;;;;3.55;0.80;;;;;;;;;;5089268;28;20131;-61
2021/07/14 06:02:18;;;;;;;2.83;0.80;;;;;;;;;;5072326;28;20048;-61
2021/07/14 06:04:45;;;;;;;6.32;1.00;;;;;;;;;;5085830;28;20127;-61
2021/07/14 06:07:12;;;;;;;4.40;1.20;;;;;;;;;;5087495;28;20032;-61
2021/07/14 06:09:39;;;;;;;13.50;1.42;;;;;;;;;;5089516;28;20094;-61
2021/07/14 06:12:07;;;;;;;2.70;0.95;;;;;;;;;;5087475;28;20048;-61
2021/07/14 06:14:34;;;;;;;6.72;0.95;;;;;;;;;;5077544;28;20041;-62
2021/07/14 06:17:00;;;;;;;7.90;0.90;;;;;;;;;;5086971;28;20097;-61
2021/07/14 06:19:28;;;;;;;7.55;0.85;;;;;;;;;;5087042;28;20032;-61
2021/07/14 06:21:55;;;;;;;4.63;0.95;;;;;;;;;;5090257;28;20059;-61
2021/07/14 06:24:22;;;;;;;4.65;1.13;;;;;;;;;;5088690;28;20074;-61
2021/07/14 06:27:09;;;;;;;7.82;0.90;;;;;;;;;;5079506;28;20044;-61
2021/07/14 06:29:36;;;;;;;7.25;1.00;;;;;;;;;;5084232;28;20588;-62
2021/07/14 06:32:25;;;;;;;3.08;1.05;;;;;;;;;;5080253;28;20039;-61
2021/07/14 06:34:52;;;;;;;10.02;2.10;;;;;;;;;;5106870;28;20039;-61
2021/07/14 06:37:19;;;;;;;3.53;1.00;;;;;;;;;;5089069;28;20131;-61
2021/07/14 06:39:45;;;;;;;4.90;1.70;;;;;;;;;;5084571;28;20043;-61
2021/07/14 06:42:13;;;;;;;4.22;0.80;;;;;;;;;;5082090;28;20089;-61
2021/07/14 06:44:40;;;;;;;3.80;0.77;;;;;;;;;;5088559;28;20525;-61
2021/07/14 06:47:07;;;;;;;3.67;0.80;;;;;;;;;;5088933;28;20078;-61
2021/07/14 06:49:34;;;;;;;5.63;1.38;;;;;;;;;;5082506;28;20127;-61
2021/07/14 06:52:01;;;;;;;11.38;1.77;;;;;;;;;;5091194;28;20042;-61
2021/07/14 06:54:28;;;;;;;5.68;0.95;;;;;;;;;;5093565;28;20094;-62
2021/07/14 06:56:57;;;;;;;5.72;1.15;;;;;;;;;;5091782;28;20094;-61
2021/07/14 06:59:23;;;;;;;6.05;1.33;;;;;;;;;;5085962;28;20385;-61
2021/07/14 07:01:50;;;;;;;4.20;0.70;;;;;;;;;;5093018;28;20044;-61
2021/07/14 07:04:18;;;;;;;5.03;0.95;;;;;;;;;;5090823;28;20484;-61
2021/07/14 07:06:45;;;;;;;1.48;0.90;;;;;;;;;;5093477;28;20476;-61
2021/07/14 07:09:11;;;;;;;10.25;0.95;;;;;;;;;;5090903;28;20036;-61
2021/07/14 07:11:38;;;;;;;4.07;1.10;;;;;;;;;;5081232;28;20086;-61
2021/07/14 07:14:05;;;;;;;3.88;0.80;;;;;;;;;;5089217;28;20036;-61
2021/07/14 07:16:32;;;;;;;3.60;0.88;;;;;;;;;;5090647;28;20097;-62
2021/07/14 07:18:59;;;;;;;5.45;0.82;;;;;;;;;;5091945;28;20104;-61
2021/07/14 07:21:26;;;;;;;3.72;0.77;;;;;;;;;;5091112;28;20492;-62
2021/07/14 07:23:53;;;;;;;11.65;0.80;;;;;;;;;;5090802;28;20124;-61
2021/07/14 07:26:20;;;;;;;3.33;0.85;;;;;;;;;;5102021;28;20093;-62
2021/07/14 07:29:06;;;;;;;5.68;1.15;;;;;;;;;;5093503;28;20053;-61
2021/07/14 07:31:33;;;;;;;4.40;0.85;;;;;;;;;;5076352;28;20119;-61
2021/07/14 07:34:00;;;;;;;9.48;1.20;;;;;;;;;;5091835;28;20038;-61
2021/07/14 07:36:26;;;;;;;5.50;1.23;;;;;;;;;;5089835;28;20535;-61
2021/07/14 07:38:53;;;;;;;9.35;1.17;;;;;;;;;;5092743;28;20058;-61
2021/07/14 07:41:21;;;;;;;4.82;1.08;;;;;;;;;;5091816;28;20040;-61
2021/07/14 07:43:47;;;;;;;5.93;0.80;;;;;;;;;;5062335;28;20078;-62
2021/07/14 07:46:14;;;;;;;6.85;1.30;;;;;;;;;;5092751;28;20101;-62
2021/07/14 07:48:41;;;;;;;3.60;1.00;;;;;;;;;;5089650;28;20127;-62
2021/07/14 07:51:08;;;;;;;4.25;0.93;;;;;;;;;;5077255;28;20495;-62
2021/07/14 07:53:36;;;;;;;4.88;1.10;;;;;;;;;;5087253;28;20545;-62
2021/07/14 07:56:03;;;;;;;9.50;1.38;;;;;;;;;;5090140;28;20044;-62
2021/07/14 07:58:30;;;;;;;5.50;1.25;;;;;;;;;;5092887;28;20040;-61
2021/07/14 08:00:57;;;;;;;5.28;1.42;;;;;;;;;;5091859;28;20036;-61
2021/07/14 08:03:24;;;;;;;5.43;1.02;;;;;;;;;;5074901;28;20053;-61
2021/07/14 08:05:51;;;;;;;3.08;0.80;;;;;;;;;;5088134;28;20099;-62
2021/07/14 08:08:18;;;;;;;9.70;1.58;;;;;;;;;;5091369;28;20077;-62
2021/07/14 08:10:45;;;;;;;6.45;1.20;;;;;;;;;;5090987;28;20093;-61
2021/07/14 08:13:12;;;;;;;3.47;0.93;;;;;;;;;;5089868;28;20438;-62
2021/07/14 08:15:39;;;;;;;2.47;0.73;;;;;;;;;;5091190;28;20412;-62
2021/07/14 08:18:06;;;;;;;4.18;0.70;;;;;;;;;;5089510;28;20044;-62
2021/07/14 08:20:33;;;;;;;10.90;1.50;;;;;;;;;;5090073;28;20032;-62
2021/07/14 08:23:00;;;;;;;1.73;0.90;;;;;;;;;;5089067;28;20032;-62
2021/07/14 08:25:26;;;;;;;3.30;0.70;;;;;;;;;;5091135;28;20499;-62
2021/07/14 08:27:53;;;;;;;4.63;0.80;;;;;;;;;;5090820;28;20039;-62
2021/07/14 08:30:20;;;;;;;5.78;0.70;;;;;;;;;;5090308;28;20118;-62
2021/07/14 08:32:47;;;;;;;1.25;0.70;;;;;;;;;;5089470;28;20040;-62
2021/07/14 08:35:14;;;;;;;3.28;1.10;;;;;;;;;;5078000;28;20090;-62
2021/07/14 08:37:44;;;;;;;3.42;0.80;;;;;;;;;;5085701;28;20044;-61
2021/07/14 08:40:11;;;;;;;5.85;1.00;;;;;;;;;;5090885;28;20024;-62
2021/07/14 08:42:39;;;;;;;7.00;0.80;;;;;;;;;;5091506;28;20047;-62
2021/07/14 08:45:07;;;;;;;2.50;0.90;;;;;;;;;;5089399;28;20036;-61
2021/07/14 08:47:34;;;;;;;3.60;1.15;;;;;;;;;;5092616;28;20048;-61
2021/07/14 08:50:01;;;;;;;3.67;0.60;;;;;;;;;;5089572;28;20027;-61
2021/07/14 08:52:28;;;;;;;3.33;0.70;;;;;;;;;;5088285;28;20051;-61
2021/07/14 08:54:55;;;;;;;4.55;0.60;;;;;;;;;;5098743;28;20039;-61
2021/07/14 08:57:22;;;;;;;2.17;0.60;;;;;;;;;;5095907;28;20140;-61
2021/07/14 08:59:49;;;;;;;1.88;1.10;;;;;;;;;;5091112;28;20032;-60
2021/07/14 09:02:16;;;;;;;3.63;0.70;;;;;;;;;;5088716;28;20070;-61
2021/07/14 09:04:43;;;;;;;3.10;0.80;;;;;;;;;;5072741;28;20060;-61
2021/07/14 09:07:10;;;;;;;4.07;0.60;;;;;;;;;;5091823;28;20039;-61
2021/07/14 09:09:38;;;;;;;1.90;0.60;;;;;;;;;;5088215;28;20036;-61
2021/07/14 09:12:08;;;;;;;1.00;0.50;;;;;;;;;;5058597;28;20130;-61
2021/07/14 09:14:36;;;;;;;2.83;0.60;;;;;;;;;;5084125;28;20547;-61
2021/07/14 09:17:22;;;;;;;2.38;0.60;;;;;;;;;;5087613;28;20101;-61
2021/07/14 09:19:50;;;;;;;1.55;0.60;;;;;;;;;;5089603;28;20094;-61
2021/07/14 09:22:20;;;;;;;1.70;0.60;;;;;;;;;;5089200;28;20040;-61
2021/07/14 09:24:48;;;;;;;1.90;0.57;;;;;;;;;;5088292;28;20048;-61
2021/07/14 09:27:17;;;;;;;1.00;0.60;;;;;;;;;;5090526;28;20075;-61
2021/07/14 09:30:03;;;;;;;1.23;0.50;;;;;;;;;;5088440;28;20085;-61
2021/07/14 09:32:43;;;;;;;0.98;0.50;;;;;;;;;;5088800;28;20070;-62
2021/07/14 09:35:10;;;;;;;1.70;0.60;;;;;;;;;;5090112;28;20135;-61
2021/07/14 09:37:37;;;;;;;1.67;0.52;;;;;;;;;;5087223;28;20048;-61
2021/07/14 09:40:24;;;;;;;2.67;0.57;;;;;;;;;;5094624;28;20035;-61
2021/07/14 09:42:58;;;;;;;1.00;0.60;;;;;;;;;;5083370;28;20036;-61
2021/07/14 09:45:48;;;;;;;1.58;0.52;;;;;;;;;;5082297;28;20044;-61
2021/07/14 09:48:23;;;;;;;1.40;0.60;;;;;;;;;;5079128;28;20048;-61
2021/07/14 09:51:01;;;;;;;2.30;0.70;;;;;;;;;;5087126;28;20044;-61
2021/07/14 09:53:28;;;;;;;1.55;0.50;;;;;;;;;;5089294;28;20384;-62
2021/07/14 09:56:00;;;;;;;0.60;0.60;;;;;;;;;;5057434;28;20049;-62
2021/07/14 09:58:30;;;;;;;2.40;0.60;;;;;;;;;;5085984;28;20063;-61
2021/07/14 10:00:58;;;;;;;1.38;0.80;;;;;;;;;;5079914;28;20074;-61
2021/07/14 10:03:31;;;;;;;1.90;0.60;;;;;;;;;;5062842;28;20043;-61
2021/07/14 10:06:15;;;;;;;0.55;0.50;;;;;;;;;;5078656;28;20036;-61
2021/07/14 10:08:43;;;;;;;2.78;0.60;;;;;;;;;;5082202;28;20561;-61
2021/07/14 10:11:13;;;;;;;0.88;0.60;;;;;;;;;;5083984;28;20377;-61
2021/07/14 10:13:49;;;;;;;3.38;0.50;;;;;;;;;;5078988;28;20052;-61
2021/07/14 10:16:16;;;;;;;2.78;0.50;;;;;;;;;;5082896;28;20040;-61
2021/07/14 10:19:02;;;;;;;1.17;0.50;;;;;;;;;;5085713;28;20041;-61
2021/07/14 10:21:30;;;;;;;4.32;0.60;;;;;;;;;;5086320;28;20039;-61
2021/07/14 10:23:57;;;;;;;1.00;0.50;;;;;;;;;;5079712;28;20075;-61
2021/07/14 10:26:25;;;;;;;0.55;0.50;;;;;;;;;;5085253;28;20446;-61
2021/07/14 10:28:53;;;;;;;0.85;0.50;;;;;;;;;;5079078;28;20028;-62
2021/07/14 10:31:21;;;;;;;1.65;0.60;;;;;;;;;;5088074;28;20170;-61
2021/07/14 10:33:49;;;;;;;1.40;0.50;;;;;;;;;;5091046;28;20036;-61
2021/07/14 10:36:17;;;;;;;1.58;0.60;;;;;;;;;;5080300;28;20060;-61
2021/07/14 10:38:49;;;;;;;1.40;0.55;;;;;;;;;;5087712;28;20074;-61
2021/07/14 10:41:17;;;;;;;1.20;0.60;;;;;;;;;;5087928;28;20527;-61
2021/07/14 10:43:44;;;;;;;2.92;0.60;;;;;;;;;;5085409;28;20076;-61
2021/07/14 10:46:21;;;;;;;2.45;1.25;;;;;;;;;;5089403;28;20372;-60
2021/07/14 10:48:49;;;;;;;1.50;0.60;;;;;;;;;;5090120;28;20033;-61
2021/07/14 10:51:16;;;;;;;0.63;0.60;;;;;;;;;;5088440;28;20040;-61
2021/07/14 10:53:44;;;;;;;0.93;0.60;;;;;;;;;;5089800;28;20036;-61
2021/07/14 10:56:12;;;;;;;1.50;0.60;;;;;;;;;;5089368;28;20097;-61
2021/07/14 10:58:42;;;;;;;3.42;0.60;;;;;;;;;;5091380;28;20032;-61
2021/07/14 11:01:09;;;;;;;0.90;0.50;;;;;;;;;;5090881;28;20626;-61
2021/07/14 11:03:38;;;;;;;2.38;1.13;;;;;;;;;;5091934;28;20496;-61
2021/07/14 11:06:06;;;;;;;3.17;0.68;;;;;;;;;;5091961;28;20067;-61
2021/07/14 11:08:46;;;;;;;2.58;0.75;;;;;;;;;;5081907;28;20086;-62
2021/07/14 11:11:15;;;;;;;0.90;0.40;;;;;;;;;;5085104;28;20035;-62
2021/07/14 11:13:43;;;;;;;0.40;0.30;;;;;;;;;;5103402;28;20036;-62
2021/07/14 11:16:25;;;;;;;0.45;0.38;;;;;;;;;;5085946;28;20043;-62
2021/07/14 11:19:03;;;;;;;0.32;0.30;;;;;;;;;;5090519;28;20036;-62
2021/07/14 11:21:48;;;;;;;0.85;0.40;;;;;;;;;;5091972;28;20051;-62
2021/07/14 11:24:34;;;;;;;0.40;0.30;;;;;;;;;;5084400;28;20491;-61
2021/07/14 11:27:20;;;;;;;0.57;0.40;;;;;;;;;;5084077;28;20070;-62
2021/07/14 11:29:47;;;;;;;1.30;0.40;;;;;;;;;;5091026;28;20032;-62
2021/07/14 11:32:39;;;;;;;0.50;0.40;;;;;;;;;;5092314;28;20051;-61
2021/07/14 11:35:05;;;;;;;2.83;0.35;;;;;;;;;;5091268;28;20483;-61
2021/07/14 11:37:32;;;;;;;0.30;0.30;;;;;;;;;;5091085;28;20135;-61
2021/07/14 11:40:17;;;;;;;0.90;0.40;;;;;;;;;;5091168;28;20520;-59
2021/07/14 11:42:48;;;;;;;2.15;0.30;;;;;;;;;;5078768;28;20055;-59
2021/07/14 11:45:15;;;;;;;1.40;0.40;;;;;;;;;;5083004;28;20449;-58
2021/07/14 11:47:42;;;;;;;1.13;0.30;;;;;;;;;;5089535;28;20064;-59
2021/07/14 11:50:10;;;;;;;0.73;0.40;;;;;;;;;;5090383;28;20048;-59
2021/07/14 11:52:45;;;;;;;0.68;0.40;;;;;;;;;;5087863;28;20040;-59
2021/07/14 11:55:24;;;;;;;0.55;0.40;;;;;;;;;;5091430;28;20040;-58
2021/07/14 11:57:51;;;;;;;2.80;0.30;;;;;;;;;;5074862;28;20362;-58
2021/07/14 12:00:38;;;;;;;0.82;0.40;;;;;;;;;;5092766;28;20067;-59
2021/07/14 12:03:05;;;;;;;1.25;0.35;;;;;;;;;;5083846;28;20039;-58
2021/07/14 12:05:33;;;;;;;0.68;0.40;;;;;;;;;;5090845;28;20119;-59
2021/07/14 12:08:13;;;;;;;1.00;0.60;;;;;;;;;;5088573;28;20044;-58
2021/07/14 12:10:43;;;;;;;0.50;0.40;;;;;;;;;;5090432;28;20039;-58
2021/07/14 12:13:10;;;;;;;0.80;0.45;;;;;;;;;;5092131;28;20036;-58
2021/07/14 12:15:46;;;;;;;0.40;0.40;;;;;;;;;;5088697;28;20447;-58
2021/07/14 12:18:13;;;;;;;0.80;0.50;;;;;;;;;;5090483;28;20510;-58
2021/07/14 12:20:48;;;;;;;0.85;0.50;;;;;;;;;;5082988;28;20058;-58
2021/07/14 12:23:16;;;;;;;0.75;0.50;;;;;;;;;;5078706;28;20032;-58
2021/07/14 12:25:43;;;;;;;0.90;0.60;;;;;;;;;;5089858;28;20036;-58
2021/07/14 12:28:11;;;;;;;1.13;0.88;;;;;;;;;;5090922;28;20036;-45
2021/07/14 12:30:47;;;;;;;2.00;0.50;;;;;;;;;;5090572;28;20055;-44
2021/07/14 12:33:15;;;;;;;1.40;0.40;;;;;;;;;;5090849;28;20083;-44
2021/07/14 12:35:43;;;;;;;1.55;0.40;;;;;;;;;;5089533;28;20085;-45
2021/07/14 12:38:11;;;;;;;1.08;0.40;;;;;;;;;;5072642;28;20040;-47
2021/07/14 12:40:39;;;;;;;1.67;0.40;;;;;;;;;;5088699;28;20127;-47
2021/07/14 12:43:12;;;;;;;0.93;0.40;;;;;;;;;;5079680;28;20036;-43
2021/07/14 12:45:40;;;;;;;0.68;0.30;;;;;;;;;;5086176;28;20063;-43
2021/07/14 12:48:08;;;;;;;0.82;0.40;;;;;;;;;;5085752;28;20040;-45
2021/07/14 12:50:39;;;;;;;0.80;0.30;;;;;;;;;;5074588;28;20511;-48
2021/07/14 12:53:06;;;;;;;0.98;0.40;;;;;;;;;;5083078;28;20037;-45
2021/07/14 12:55:37;;;;;;;0.90;0.30;;;;;;;;;;5077902;28;20086;-45
2021/07/14 12:58:05;;;;;;;0.38;0.32;;;;;;;;;;5090360;28;20063;-45
2021/07/14 13:00:33;;;;;;;1.10;0.77;;;;;;;;;;5088986;28;20715;-45
2021/07/14 13:03:02;;;;;;;1.27;0.40;;;;;;;;;;5088389;28;20048;-46
2021/07/14 13:05:30;;;;;;;0.80;0.30;;;;;;;;;;5090585;28;20408;-44
2021/07/14 13:08:14;;;;;;;1.65;0.30;;;;;;;;;;5089543;28;20036;-42
2021/07/14 13:10:41;;;;;;;1.20;0.35;;;;;;;;;;5089033;28;20437;-44
2021/07/14 13:13:09;;;;;;;0.45;0.30;;;;;;;;;;5082699;28;20351;-45
2021/07/14 13:15:36;;;;;;;0.55;0.30;;;;;;;;;;5081104;28;20028;-45
2021/07/14 13:18:05;;;;;;;3.75;0.30;;;;;;;;;;5090362;28;20048;-45
2021/07/14 13:20:39;;;;;;;0.82;0.30;;;;;;;;;;5088821;28;20072;-44
2021/07/14 13:23:07;;;;;;;1.23;0.30;;;;;;;;;;5089388;28;20032;-46
2021/07/14 13:25:39;;;;;;;0.82;0.30;;;;;;;;;;5090446;28;20047;-43
2021/07/14 13:28:16;;;;;;;0.80;0.33;;;;;;;;;;5088033;28;20044;-43
2021/07/14 13:30:48;;;;;;;0.20;0.20;;;;;;;;;;5085498;28;20889;-44
2021/07/14 13:33:16;;;;;;;1.70;0.30;;;;;;;;;;5084431;28;20036;-45
2021/07/14 13:35:48;;;;;;;0.60;0.40;;;;;;;;;;5086651;28;20074;-44
2021/07/14 13:38:34;;;;;;;0.38;0.30;;;;;;;;;;5088299;28;20040;-46
2021/07/14 13:41:02;;;;;;;0.30;0.30;;;;;;;;;;5087591;28;20040;-43
2021/07/14 13:43:39;;;;;;;1.55;0.30;;;;;;;;;;5076674;28;20047;-42
2021/07/14 13:46:07;;;;;;;0.77;0.30;;;;;;;;;;5077337;28;20072;-44
2021/07/14 13:48:35;;;;;;;0.40;0.30;;;;;;;;;;5083900;28;20043;-44
2021/07/14 13:51:06;;;;;;;1.10;0.30;;;;;;;;;;5085094;28;20044;-43
2021/07/14 13:53:35;;;;;;;0.32;0.30;;;;;;;;;;5088554;28;20077;-47
2021/07/14 13:56:05;;;;;;;0.57;0.30;;;;;;;;;;5086913;28;20075;-43
2021/07/14 13:58:32;;;;;;;1.17;0.30;;;;;;;;;;5090593;28;20055;-44
2021/07/14 14:01:00;;;;;;;0.40;0.40;;;;;;;;;;5092414;28;20068;-44
2021/07/14 14:03:29;;;;;;;0.85;0.30;;;;;;;;;;5083431;28;20094;-46
2021/07/14 14:06:16;;;;;;;;;;;;;;;;;;;;;
2021/07/14 14:08:49;;;;;;;0.28;0.20;;;;;;;;;;5069265;28;20731;-43
2021/07/14 14:11:16;;;;;;;0.43;0.30;;;;;;;;;;5076588;28;20140;-43
2021/07/14 14:13:46;;;;;;;0.77;0.40;;;;;;;;;;5087235;28;20033;-45
2021/07/14 14:16:13;;;;;;;1.13;0.32;;;;;;;;;;5081896;28;20032;-43
2021/07/14 14:18:39;;;;;;;1.35;0.30;;;;;;;;;;5088475;28;20040;-45
2021/07/14 14:21:06;;;;;;;1.67;0.30;;;;;;;;;;5090464;28;20083;-43
2021/07/14 14:23:33;;;;;;;0.88;0.30;;;;;;;;;;5075241;28;20143;-43
2021/07/14 14:26:03;;;;;;;0.30;0.30;;;;;;;;;;5102055;28;20035;-43
2021/07/14 14:28:30;;;;;;;0.38;0.30;;;;;;;;;;5099217;28;20036;-45
2021/07/14 14:30:59;;;;;;;0.80;0.40;;;;;;;;;;5094234;28;20078;-47
2021/07/14 14:33:26;;;;;;;0.20;0.20;;;;;;;;;;5093307;28;20040;-45
2021/07/14 14:35:53;;;;;;;0.35;0.30;;;;;;;;;;5086073;28;20113;-45
2021/07/14 14:38:22;;;;;;;1.05;0.30;;;;;;;;;;5090664;28;20048;-45
2021/07/14 14:40:50;;;;;;;0.80;0.30;;;;;;;;;;5090952;28;20046;-43
2021/07/14 14:43:17;;;;;;;0.77;0.30;;;;;;;;;;5081356;28;20040;-44
2021/07/14 14:45:45;;;;;;;0.50;0.35;;;;;;;;;;5091351;28;20048;-44
2021/07/14 14:48:12;;;;;;;2.08;0.30;;;;;;;;;;5088482;28;20678;-46
2021/07/14 14:50:53;;;;;;;1.23;0.30;;;;;;;;;;5092673;28;20457;-47
2021/07/14 14:53:20;;;;;;;0.30;0.30;;;;;;;;;;5092809;28;20042;-47
2021/07/14 14:55:47;;;;;;;0.77;0.35;;;;;;;;;;5090147;28;20103;-46
2021/07/14 14:58:14;;;;;;;1.30;0.30;;;;;;;;;;5091832;28;20044;-46
2021/07/14 15:00:41;;;;;;;0.85;0.30;;;;;;;;;;5089818;28;20518;-44
2021/07/14 15:03:09;;;;;;;0.70;0.30;;;;;;;;;;5091731;28;20438;-48
2021/07/14 15:05:38;;;;;;;2.15;0.32;;;;;;;;;;5090566;28;20404;-46